PST,Max TemperatureF,Mean TemperatureF,Min TemperatureF,Max Dew PointF,MeanDew PointF,Min DewpointF,Max Humidity, Mean Humidity, Min Humidity, Max Sea Level PressureIn, Mean Sea Level PressureIn, Min Sea Level PressureIn, Max VisibilityMiles, Mean VisibilityMiles, Min VisibilityMiles, Max Wind SpeedMPH, Mean Wind SpeedMPH, Max Gust SpeedMPH,PrecipitationIn, CloudCover, Events, WindDirDegrees
2013-2-1,51,35,18,32,23,17,92,67,42,30.40,30.35,30.29,10,8,2,6,1,7,0.00,0,,28
2013-2-2,50,36,21,35,27,19,96,71,46,30.42,30.35,30.27,10,8,2,9,2,13,0.00,0,,88
2013-2-3,50,36,21,33,28,20,100,73,46,30.33,30.28,30.22,10,9,4,6,1,8,0.00,0,,100
2013-2-4,52,37,22,32,27,22,100,71,41,30.26,30.17,30.07,10,8,2,6,0,7,0.00,0,,283
2013-2-5,47,37,26,34,29,24,96,75,53,30.12,30.04,29.96,10,9,2,16,5,22,0.06,3,Rain-Snow,272
2013-2-6,48,35,22,30,25,21,100,69,38,30.20,30.11,30.03,10,5,0,16,4,18,0.00,3,Fog,196
2013-2-7,38,30,21,29,25,19,92,74,56,30.02,29.95,29.89,10,8,1,16,5,23,0.01,5,Snow,255
2013-2-8,35,27,18,20,18,16,92,71,49,30.07,30.01,29.91,10,10,7,25,9,32,0.00,2,,360
2013-2-9,39,28,16,21,17,12,96,70,44,30.16,30.11,30.07,10,9,3,13,4,28,0.00,0,,320
2013-2-10,42,30,18,25,20,17,96,67,38,30.22,30.18,30.10,10,10,7,16,6,21,0.00,1,,27
2013-2-11,46,31,16,25,21,15,92,63,34,30.34,30.27,30.20,10,9,4,8,1,10,0.00,0,,85
2013-2-12,46,32,17,29,23,15,92,71,49,30.47,30.42,30.34,10,8,2,7,1,9,0.00,1,,346
2013-2-13,51,35,19,30,25,18,96,69,42,30.50,30.43,30.35,10,9,4,9,2,10,0.00,2,,354
2013-2-14,50,35,19,31,25,17,100,70,39,30.52,30.47,30.42,10,8,2,13,3,16,0.00,0,,10
2013-2-15,57,38,19,30,25,18,96,63,30,30.49,30.41,30.33,10,9,4,17,4,23,0.00,0,,149
2013-2-16,57,38,19,29,24,17,100,62,24,30.34,30.21,30.08,10,8,5,9,3,12,0.00,1,,261
2013-2-17,44,32,19,27,18,11,85,56,27,30.18,30.10,30.03,10,9,4,6,2,7,0.00,0,,292
2013-2-18,49,35,21,31,25,18,92,62,31,30.06,29.85,29.72,10,8,1,21,6,26,0.02,5,Snow,258
2013-2-19,33,28,22,30,27,21,92,81,69,29.82,29.67,29.59,10,7,0,16,4,20,0.09,7,Fog-Snow,241
2013-2-20,37,26,15,22,19,14,92,72,52,30.04,29.99,29.86,10,10,10,10,4,16,0.00,2,,328
2013-2-21,37,28,19,25,22,18,92,72,52,30.20,30.11,29.99,10,8,1,13,4,21,0.01,7,Snow,288
2013-2-22,49,36,22,32,26,21,96,69,42,30.27,30.13,29.91,10,10,6,26,5,36,T,4,Rain,223
2013-2-23,37,30,22,34,22,17,85,69,52,30.34,30.15,29.93,10,9,1,18,11,24,0.03,5,Snow-Thunderstorm,317
2013-2-24,43,28,12,21,16,6,96,59,22,30.43,30.34,30.25,10,9,4,8,1,46,0.00,0,,79
2013-2-25,42,31,20,31,22,15,92,64,36,30.32,30.22,30.14,10,8,1,21,8,28,0.03,3,Snow,288
2013-2-26,43,28,12,21,17,11,92,64,36,30.40,30.34,30.27,10,9,6,9,2,10,0.00,0,,78
2013-2-27,51,33,15,25,19,14,92,59,26,30.39,30.34,30.29,10,9,6,6,1,7,0.00,3,,60
2013-2-28,51,42,33,39,34,27,100,77,54,30.52,30.44,30.35,10,10,5,9,2,16,T,7,Rain,269